sensor_id;sensor_type;location;lat;lon;timestamp;P1;durP1;ratioP1;P2;durP2;ratioP2
42518;SDS011;28147;47.520;18.920;2023-02-01T00:33:51;5.10;;;1.55;;
42518;SDS011;28147;47.520;18.920;2023-02-01T00:38:02;2.22;;;1.00;;
42518;SDS011;28147;47.520;18.920;2023-02-01T00:43:06;3.22;;;1.50;;
42518;SDS011;28147;47.520;18.920;2023-02-01T00:46:04;4.75;;;1.75;;
42518;SDS011;28147;47.520;18.920;2023-02-01T00:50:18;3.40;;;1.50;;
42518;SDS011;28147;47.520;18.920;2023-02-01T00:52:44;5.10;;;1.10;;
42518;SDS011;28147;47.520;18.920;2023-02-01T00:55:09;2.58;;;1.27;;
42518;SDS011;28147;47.520;18.920;2023-02-01T00:57:34;4.20;;;1.38;;
42518;SDS011;28147;47.520;18.920;2023-02-01T01:00:00;5.03;;;1.50;;
42518;SDS011;28147;47.520;18.920;2023-02-01T01:03:56;3.88;;;1.25;;
42518;SDS011;28147;47.520;18.920;2023-02-01T01:07:13;3.30;;;1.50;;
42518;SDS011;28147;47.520;18.920;2023-02-01T01:09:39;3.35;;;1.20;;
42518;SDS011;28147;47.520;18.920;2023-02-01T01:12:04;4.07;;;1.52;;
42518;SDS011;28147;47.520;18.920;2023-02-01T01:14:29;6.57;;;1.45;;
42518;SDS011;28147;47.520;18.920;2023-02-01T01:18:34;4.05;;;1.40;;
42518;SDS011;28147;47.520;18.920;2023-02-01T01:21:26;2.83;;;1.10;;
42518;SDS011;28147;47.520;18.920;2023-02-01T01:24:17;3.45;;;1.40;;
42518;SDS011;28147;47.520;18.920;2023-02-01T01:27:33;3.30;;;1.40;;
42518;SDS011;28147;47.520;18.920;2023-02-01T01:32:19;4.60;;;1.40;;
42518;SDS011;28147;47.520;18.920;2023-02-01T01:34:44;3.20;;;1.13;;
42518;SDS011;28147;47.520;18.920;2023-02-01T01:37:38;4.40;;;1.40;;
42518;SDS011;28147;47.520;18.920;2023-02-01T01:40:04;4.78;;;1.65;;
42518;SDS011;28147;47.520;18.920;2023-02-01T01:42:30;3.08;;;1.20;;
42518;SDS011;28147;47.520;18.920;2023-02-01T01:46:26;2.60;;;1.25;;
42518;SDS011;28147;47.520;18.920;2023-02-01T01:51:23;2.97;;;1.30;;
42518;SDS011;28147;47.520;18.920;2023-02-01T01:54:02;7.07;;;1.70;;
42518;SDS011;28147;47.520;18.920;2023-02-01T02:07:45;2.38;;;1.20;;
42518;SDS011;28147;47.520;18.920;2023-02-01T02:11:10;3.55;;;1.55;;
42518;SDS011;28147;47.520;18.920;2023-02-01T02:14:09;4.57;;;1.70;;
42518;SDS011;28147;47.520;18.920;2023-02-01T02:18:04;4.35;;;1.63;;
42518;SDS011;28147;47.520;18.920;2023-02-01T02:59:36;1.75;;;1.05;;
42518;SDS011;28147;47.520;18.920;2023-02-01T03:24:59;2.67;;;1.25;;
42518;SDS011;28147;47.520;18.920;2023-02-01T03:34:46;3.45;;;1.38;;
42518;SDS011;28147;47.520;18.920;2023-02-01T03:46:06;1.33;;;0.85;;
42518;SDS011;28147;47.520;18.920;2023-02-01T03:50:52;2.80;;;0.82;;
42518;SDS011;28147;47.520;18.920;2023-02-01T03:53:22;2.00;;;1.17;;
42518;SDS011;28147;47.520;18.920;2023-02-01T03:55:50;2.95;;;1.67;;
42518;SDS011;28147;47.520;18.920;2023-02-01T03:58:18;2.50;;;1.15;;
42518;SDS011;28147;47.520;18.920;2023-02-01T04:00:56;2.45;;;1.17;;
42518;SDS011;28147;47.520;18.920;2023-02-01T04:04:40;1.63;;;1.15;;
42518;SDS011;28147;47.520;18.920;2023-02-01T04:07:05;3.92;;;1.10;;
42518;SDS011;28147;47.520;18.920;2023-02-01T04:10:07;2.22;;;1.15;;
42518;SDS011;28147;47.520;18.920;2023-02-01T04:14:09;2.22;;;1.00;;
42518;SDS011;28147;47.520;18.920;2023-02-01T04:20:20;1.65;;;1.10;;
42518;SDS011;28147;47.520;18.920;2023-02-01T04:28:39;2.20;;;1.30;;
42518;SDS011;28147;47.520;18.920;2023-02-01T04:32:35;1.98;;;1.10;;
42518;SDS011;28147;47.520;18.920;2023-02-01T04:39:58;2.38;;;1.13;;
42518;SDS011;28147;47.520;18.920;2023-02-01T04:42:23;3.25;;;1.65;;
42518;SDS011;28147;47.520;18.920;2023-02-01T04:44:49;2.13;;;1.10;;
42518;SDS011;28147;47.520;18.920;2023-02-01T04:47:15;2.13;;;1.13;;
42518;SDS011;28147;47.520;18.920;2023-02-01T04:51:32;2.70;;;1.23;;
42518;SDS011;28147;47.520;18.920;2023-02-01T04:53:57;2.72;;;1.08;;
42518;SDS011;28147;47.520;18.920;2023-02-01T04:56:34;2.95;;;1.20;;
42518;SDS011;28147;47.520;18.920;2023-02-01T05:03:19;2.15;;;1.00;;
42518;SDS011;28147;47.520;18.920;2023-02-01T05:06:01;1.38;;;0.80;;
42518;SDS011;28147;47.520;18.920;2023-02-01T05:08:48;2.08;;;1.13;;
42518;SDS011;28147;47.520;18.920;2023-02-01T05:12:06;3.22;;;1.73;;
42518;SDS011;28147;47.520;18.920;2023-02-01T05:15:03;5.90;;;2.58;;
42518;SDS011;28147;47.520;18.920;2023-02-01T05:17:29;4.82;;;2.33;;
42518;SDS011;28147;47.520;18.920;2023-02-01T05:19:54;2.65;;;1.30;;
42518;SDS011;28147;47.520;18.920;2023-02-01T05:22:20;1.60;;;1.00;;
42518;SDS011;28147;47.520;18.920;2023-02-01T05:24:45;2.53;;;1.05;;
42518;SDS011;28147;47.520;18.920;2023-02-01T05:38:42;2.10;;;1.10;;
42518;SDS011;28147;47.520;18.920;2023-02-01T06:06:22;2.33;;;1.20;;
42518;SDS011;28147;47.520;18.920;2023-02-01T06:10:12;1.70;;;1.02;;
42518;SDS011;28147;47.520;18.920;2023-02-01T06:14:58;2.20;;;0.95;;
42518;SDS011;28147;47.520;18.920;2023-02-01T06:18:34;4.10;;;1.55;;
42518;SDS011;28147;47.520;18.920;2023-02-01T06:21:00;2.58;;;1.40;;
42518;SDS011;28147;47.520;18.920;2023-02-01T06:26:49;3.58;;;1.38;;
42518;SDS011;28147;47.520;18.920;2023-02-01T06:29:15;2.55;;;1.40;;
42518;SDS011;28147;47.520;18.920;2023-02-01T06:31:40;2.55;;;1.33;;
42518;SDS011;28147;47.520;18.920;2023-02-01T06:35:22;2.92;;;1.25;;
42518;SDS011;28147;47.520;18.920;2023-02-01T06:37:48;2.40;;;1.15;;
42518;SDS011;28147;47.520;18.920;2023-02-01T06:40:13;1.88;;;1.10;;
42518;SDS011;28147;47.520;18.920;2023-02-01T06:42:38;2.90;;;1.35;;
42518;SDS011;28147;47.520;18.920;2023-02-01T06:45:04;2.63;;;1.40;;
42518;SDS011;28147;47.520;18.920;2023-02-01T06:51:05;2.22;;;1.13;;
42518;SDS011;28147;47.520;18.920;2023-02-01T06:53:30;1.70;;;1.02;;
42518;SDS011;28147;47.520;18.920;2023-02-01T06:55:57;2.47;;;1.20;;
42518;SDS011;28147;47.520;18.920;2023-02-01T06:58:27;4.03;;;1.15;;
42518;SDS011;28147;47.520;18.920;2023-02-01T07:00:58;3.28;;;1.23;;
42518;SDS011;28147;47.520;18.920;2023-02-01T07:03:29;1.85;;;1.13;;
42518;SDS011;28147;47.520;18.920;2023-02-01T07:05:57;2.97;;;0.98;;
42518;SDS011;28147;47.520;18.920;2023-02-01T07:08:30;1.50;;;0.77;;
42518;SDS011;28147;47.520;18.920;2023-02-01T07:10:56;2.53;;;1.35;;
42518;SDS011;28147;47.520;18.920;2023-02-01T07:13:26;2.40;;;1.08;;
42518;SDS011;28147;47.520;18.920;2023-02-01T07:20:02;2.40;;;1.10;;
42518;SDS011;28147;47.520;18.920;2023-02-01T07:22:28;3.70;;;0.85;;
42518;SDS011;28147;47.520;18.920;2023-02-01T07:24:54;2.65;;;1.30;;
42518;SDS011;28147;47.520;18.920;2023-02-01T07:27:19;3.28;;;1.08;;
42518;SDS011;28147;47.520;18.920;2023-02-01T07:29:45;2.15;;;1.10;;
42518;SDS011;28147;47.520;18.920;2023-02-01T07:32:10;4.57;;;1.10;;
42518;SDS011;28147;47.520;18.920;2023-02-01T07:34:36;2.30;;;1.13;;
42518;SDS011;28147;47.520;18.920;2023-02-01T07:37:01;2.28;;;1.30;;
42518;SDS011;28147;47.520;18.920;2023-02-01T07:39:27;2.42;;;1.20;;
42518;SDS011;28147;47.520;18.920;2023-02-01T07:41:53;2.30;;;0.98;;
42518;SDS011;28147;47.520;18.920;2023-02-01T07:44:18;2.40;;;1.30;;
42518;SDS011;28147;47.520;18.920;2023-02-01T07:46:47;2.83;;;1.35;;
42518;SDS011;28147;47.520;18.920;2023-02-01T07:49:55;1.70;;;1.00;;
42518;SDS011;28147;47.520;18.920;2023-02-01T07:52:20;3.47;;;1.30;;
42518;SDS011;28147;47.520;18.920;2023-02-01T07:54:45;2.63;;;1.17;;
42518;SDS011;28147;47.520;18.920;2023-02-01T07:57:11;2.67;;;1.42;;
42518;SDS011;28147;47.520;18.920;2023-02-01T07:59:37;2.45;;;1.20;;
42518;SDS011;28147;47.520;18.920;2023-02-01T08:02:22;3.03;;;1.20;;
42518;SDS011;28147;47.520;18.920;2023-02-01T08:04:48;4.20;;;1.20;;
42518;SDS011;28147;47.520;18.920;2023-02-01T08:07:13;1.70;;;0.88;;
42518;SDS011;28147;47.520;18.920;2023-02-01T08:09:39;5.00;;;1.48;;
42518;SDS011;28147;47.520;18.920;2023-02-01T08:12:04;2.15;;;1.05;;
42518;SDS011;28147;47.520;18.920;2023-02-01T08:14:30;2.50;;;1.10;;
42518;SDS011;28147;47.520;18.920;2023-02-01T08:16:55;1.27;;;0.88;;
42518;SDS011;28147;47.520;18.920;2023-02-01T08:19:21;2.10;;;1.00;;
42518;SDS011;28147;47.520;18.920;2023-02-01T08:21:46;2.13;;;1.00;;
42518;SDS011;28147;47.520;18.920;2023-02-01T08:24:13;2.50;;;1.27;;
42518;SDS011;28147;47.520;18.920;2023-02-01T08:26:39;3.67;;;2.10;;
42518;SDS011;28147;47.520;18.920;2023-02-01T08:29:05;5.50;;;1.35;;
42518;SDS011;28147;47.520;18.920;2023-02-01T08:31:32;2.85;;;1.60;;
42518;SDS011;28147;47.520;18.920;2023-02-01T08:33:58;3.78;;;1.35;;
42518;SDS011;28147;47.520;18.920;2023-02-01T08:36:26;3.55;;;1.48;;
42518;SDS011;28147;47.520;18.920;2023-02-01T08:38:53;3.92;;;1.60;;
42518;SDS011;28147;47.520;18.920;2023-02-01T08:41:20;2.88;;;1.50;;
42518;SDS011;28147;47.520;18.920;2023-02-01T08:43:48;3.90;;;1.88;;
42518;SDS011;28147;47.520;18.920;2023-02-01T08:46:14;3.13;;;1.77;;
42518;SDS011;28147;47.520;18.920;2023-02-01T08:48:39;4.28;;;1.80;;
42518;SDS011;28147;47.520;18.920;2023-02-01T08:51:09;4.25;;;1.70;;
42518;SDS011;28147;47.520;18.920;2023-02-01T08:53:37;8.27;;;1.75;;
42518;SDS011;28147;47.520;18.920;2023-02-01T08:56:03;4.07;;;1.70;;
42518;SDS011;28147;47.520;18.920;2023-02-01T08:58:29;3.15;;;1.58;;
42518;SDS011;28147;47.520;18.920;2023-02-01T09:00:55;2.88;;;1.40;;
42518;SDS011;28147;47.520;18.920;2023-02-01T09:03:20;3.25;;;1.70;;
42518;SDS011;28147;47.520;18.920;2023-02-01T09:05:46;2.65;;;1.30;;
42518;SDS011;28147;47.520;18.920;2023-02-01T09:08:12;3.78;;;1.58;;
42518;SDS011;28147;47.520;18.920;2023-02-01T09:10:40;2.97;;;1.70;;
42518;SDS011;28147;47.520;18.920;2023-02-01T09:13:06;4.18;;;1.73;;
42518;SDS011;28147;47.520;18.920;2023-02-01T09:15:32;3.72;;;1.67;;
42518;SDS011;28147;47.520;18.920;2023-02-01T09:17:58;2.65;;;1.50;;
42518;SDS011;28147;47.520;18.920;2023-02-01T09:20:23;2.83;;;1.50;;
42518;SDS011;28147;47.520;18.920;2023-02-01T09:22:50;4.20;;;1.73;;
42518;SDS011;28147;47.520;18.920;2023-02-01T09:25:16;3.45;;;1.98;;
42518;SDS011;28147;47.520;18.920;2023-02-01T09:27:42;2.97;;;1.50;;
42518;SDS011;28147;47.520;18.920;2023-02-01T09:30:07;3.75;;;1.95;;
42518;SDS011;28147;47.520;18.920;2023-02-01T09:32:33;5.65;;;1.70;;
42518;SDS011;28147;47.520;18.920;2023-02-01T09:34:59;3.63;;;1.92;;
42518;SDS011;28147;47.520;18.920;2023-02-01T09:37:24;2.85;;;1.70;;
42518;SDS011;28147;47.520;18.920;2023-02-01T09:39:49;5.20;;;1.63;;
42518;SDS011;28147;47.520;18.920;2023-02-01T09:47:31;3.83;;;1.80;;
42518;SDS011;28147;47.520;18.920;2023-02-01T09:50:04;4.55;;;2.08;;
42518;SDS011;28147;47.520;18.920;2023-02-01T09:52:39;5.63;;;2.10;;
42518;SDS011;28147;47.520;18.920;2023-02-01T09:55:15;3.60;;;1.67;;
42518;SDS011;28147;47.520;18.920;2023-02-01T09:57:58;3.90;;;1.90;;
42518;SDS011;28147;47.520;18.920;2023-02-01T10:00:34;3.95;;;2.00;;
42518;SDS011;28147;47.520;18.920;2023-02-01T10:03:01;3.40;;;2.08;;
42518;SDS011;28147;47.520;18.920;2023-02-01T10:10:47;3.00;;;1.55;;
42518;SDS011;28147;47.520;18.920;2023-02-01T10:16:11;5.10;;;2.30;;
42518;SDS011;28147;47.520;18.920;2023-02-01T10:24:22;4.30;;;2.10;;
42518;SDS011;28147;47.520;18.920;2023-02-01T10:27:13;4.22;;;1.83;;
42518;SDS011;28147;47.520;18.920;2023-02-01T10:29:51;3.50;;;2.10;;
42518;SDS011;28147;47.520;18.920;2023-02-01T10:32:27;3.13;;;1.70;;
42518;SDS011;28147;47.520;18.920;2023-02-01T10:35:00;5.53;;;2.10;;
42518;SDS011;28147;47.520;18.920;2023-02-01T10:37:46;3.58;;;1.70;;
42518;SDS011;28147;47.520;18.920;2023-02-01T10:40:24;5.25;;;1.98;;
42518;SDS011;28147;47.520;18.920;2023-02-01T10:42:51;4.20;;;2.00;;
42518;SDS011;28147;47.520;18.920;2023-02-01T10:45:20;4.07;;;2.13;;
42518;SDS011;28147;47.520;18.920;2023-02-01T10:47:49;5.45;;;2.35;;
42518;SDS011;28147;47.520;18.920;2023-02-01T10:52:57;3.45;;;2.10;;
42518;SDS011;28147;47.520;18.920;2023-02-01T10:55:34;3.22;;;2.00;;
42518;SDS011;28147;47.520;18.920;2023-02-01T10:58:04;3.25;;;1.95;;
42518;SDS011;28147;47.520;18.920;2023-02-01T11:00:41;5.00;;;2.60;;
42518;SDS011;28147;47.520;18.920;2023-02-01T11:05:47;5.57;;;2.25;;
42518;SDS011;28147;47.520;18.920;2023-02-01T11:08:16;7.35;;;2.88;;
42518;SDS011;28147;47.520;18.920;2023-02-01T11:13:16;4.57;;;2.00;;
42518;SDS011;28147;47.520;18.920;2023-02-01T11:15:44;4.75;;;2.13;;
42518;SDS011;28147;47.520;18.920;2023-02-01T11:18:15;5.75;;;2.50;;
42518;SDS011;28147;47.520;18.920;2023-02-01T11:20:42;4.38;;;2.47;;
42518;SDS011;28147;47.520;18.920;2023-02-01T11:23:16;4.45;;;2.65;;
42518;SDS011;28147;47.520;18.920;2023-02-01T11:25:54;5.97;;;2.92;;
42518;SDS011;28147;47.520;18.920;2023-02-01T11:28:31;5.93;;;2.92;;
42518;SDS011;28147;47.520;18.920;2023-02-01T11:31:03;5.80;;;2.83;;
42518;SDS011;28147;47.520;18.920;2023-02-01T11:33:34;4.07;;;2.20;;
42518;SDS011;28147;47.520;18.920;2023-02-01T11:36:06;5.40;;;2.60;;
42518;SDS011;28147;47.520;18.920;2023-02-01T11:38:34;5.90;;;2.78;;
42518;SDS011;28147;47.520;18.920;2023-02-01T11:43:49;6.82;;;2.72;;
42518;SDS011;28147;47.520;18.920;2023-02-01T11:46:17;6.65;;;3.50;;
42518;SDS011;28147;47.520;18.920;2023-02-01T11:48:49;7.68;;;3.78;;
42518;SDS011;28147;47.520;18.920;2023-02-01T11:51:28;8.20;;;3.70;;
42518;SDS011;28147;47.520;18.920;2023-02-01T12:05:14;4.95;;;2.78;;
42518;SDS011;28147;47.520;18.920;2023-02-01T12:18:42;7.30;;;2.92;;
42518;SDS011;28147;47.520;18.920;2023-02-01T12:27:00;10.60;;;5.47;;
42518;SDS011;28147;47.520;18.920;2023-02-01T12:34:55;6.60;;;2.90;;
42518;SDS011;28147;47.520;18.920;2023-02-01T12:38:01;4.70;;;2.55;;
42518;SDS011;28147;47.520;18.920;2023-02-01T12:43:45;3.47;;;2.03;;
42518;SDS011;28147;47.520;18.920;2023-02-01T12:46:52;3.75;;;1.65;;
42518;SDS011;28147;47.520;18.920;2023-02-01T12:49:17;3.63;;;1.48;;
42518;SDS011;28147;47.520;18.920;2023-02-01T12:51:50;4.35;;;1.77;;
42518;SDS011;28147;47.520;18.920;2023-02-01T12:54:24;2.38;;;1.40;;
42518;SDS011;28147;47.520;18.920;2023-02-01T12:57:53;4.40;;;2.05;;
42518;SDS011;28147;47.520;18.920;2023-02-01T13:11:33;4.43;;;1.92;;
42518;SDS011;28147;47.520;18.920;2023-02-01T13:14:14;4.13;;;2.10;;
42518;SDS011;28147;47.520;18.920;2023-02-01T13:16:53;4.40;;;2.10;;
42518;SDS011;28147;47.520;18.920;2023-02-01T13:19:26;7.88;;;2.72;;
42518;SDS011;28147;47.520;18.920;2023-02-01T13:22:06;3.88;;;2.00;;
42518;SDS011;28147;47.520;18.920;2023-02-01T13:27:10;5.63;;;2.20;;
42518;SDS011;28147;47.520;18.920;2023-02-01T13:29:37;4.38;;;2.20;;
42518;SDS011;28147;47.520;18.920;2023-02-01T13:40:50;5.85;;;2.38;;
42518;SDS011;28147;47.520;18.920;2023-02-01T13:43:21;4.97;;;2.25;;
42518;SDS011;28147;47.520;18.920;2023-02-01T13:45:51;5.53;;;2.13;;
42518;SDS011;28147;47.520;18.920;2023-02-01T13:50:56;6.22;;;2.78;;
42518;SDS011;28147;47.520;18.920;2023-02-01T13:53:36;3.67;;;1.90;;
42518;SDS011;28147;47.520;18.920;2023-02-01T13:56:11;4.15;;;2.22;;
42518;SDS011;28147;47.520;18.920;2023-02-01T13:58:41;4.50;;;2.30;;
42518;SDS011;28147;47.520;18.920;2023-02-01T14:03:49;4.88;;;2.40;;
42518;SDS011;28147;47.520;18.920;2023-02-01T14:14:45;5.70;;;2.08;;
42518;SDS011;28147;47.520;18.920;2023-02-01T14:24:31;3.55;;;1.75;;
42518;SDS011;28147;47.520;18.920;2023-02-01T14:27:02;5.60;;;2.38;;
42518;SDS011;28147;47.520;18.920;2023-02-01T14:29:43;4.22;;;1.85;;
42518;SDS011;28147;47.520;18.920;2023-02-01T14:32:20;4.38;;;2.25;;
42518;SDS011;28147;47.520;18.920;2023-02-01T15:00:17;2.60;;;1.30;;
42518;SDS011;28147;47.520;18.920;2023-02-01T15:09:46;2.72;;;1.00;;
42518;SDS011;28147;47.520;18.920;2023-02-01T15:26:50;2.55;;;0.60;;
42518;SDS011;28147;47.520;18.920;2023-02-01T15:34:58;4.82;;;0.80;;
42518;SDS011;28147;47.520;18.920;2023-02-01T15:41:39;3.08;;;1.05;;
42518;SDS011;28147;47.520;18.920;2023-02-01T15:45:22;1.45;;;0.70;;
42518;SDS011;28147;47.520;18.920;2023-02-01T15:48:35;2.58;;;0.90;;
42518;SDS011;28147;47.520;18.920;2023-02-01T15:51:11;2.17;;;1.10;;
42518;SDS011;28147;47.520;18.920;2023-02-01T15:53:58;2.88;;;1.20;;
42518;SDS011;28147;47.520;18.920;2023-02-01T15:59:46;2.72;;;1.20;;
42518;SDS011;28147;47.520;18.920;2023-02-01T16:10:39;2.92;;;0.75;;
42518;SDS011;28147;47.520;18.920;2023-02-01T16:13:06;2.03;;;0.68;;
42518;SDS011;28147;47.520;18.920;2023-02-01T16:18:47;1.42;;;0.55;;
42518;SDS011;28147;47.520;18.920;2023-02-01T16:28:34;1.00;;;0.63;;
42518;SDS011;28147;47.520;18.920;2023-02-01T16:30:59;4.13;;;1.00;;
42518;SDS011;28147;47.520;18.920;2023-02-01T16:33:25;3.88;;;1.00;;
42518;SDS011;28147;47.520;18.920;2023-02-01T16:38:02;2.22;;;1.40;;
42518;SDS011;28147;47.520;18.920;2023-02-01T16:52:27;2.20;;;1.13;;
42518;SDS011;28147;47.520;18.920;2023-02-01T16:59:43;3.35;;;1.50;;
42518;SDS011;28147;47.520;18.920;2023-02-01T17:02:27;5.50;;;1.90;;
42518;SDS011;28147;47.520;18.920;2023-02-01T17:32:55;2.08;;;0.98;;
42518;SDS011;28147;47.520;18.920;2023-02-01T18:18:11;3.15;;;0.88;;
42518;SDS011;28147;47.520;18.920;2023-02-01T19:14:58;4.90;;;1.80;;
42518;SDS011;28147;47.520;18.920;2023-02-01T19:49:38;3.67;;;1.63;;
42518;SDS011;28147;47.520;18.920;2023-02-01T19:54:51;3.15;;;1.73;;
42518;SDS011;28147;47.520;18.920;2023-02-01T19:57:16;3.33;;;1.25;;
42518;SDS011;28147;47.520;18.920;2023-02-01T19:59:42;3.80;;;1.67;;
42518;SDS011;28147;47.520;18.920;2023-02-01T20:14:21;4.70;;;1.70;;
42518;SDS011;28147;47.520;18.920;2023-02-01T20:22:25;2.30;;;1.30;;
42518;SDS011;28147;47.520;18.920;2023-02-01T20:26:27;2.33;;;1.10;;
42518;SDS011;28147;47.520;18.920;2023-02-01T20:29:29;3.22;;;1.38;;
42518;SDS011;28147;47.520;18.920;2023-02-01T20:38:40;2.00;;;1.23;;
42518;SDS011;28147;47.520;18.920;2023-02-01T20:41:07;2.97;;;1.08;;
42518;SDS011;28147;47.520;18.920;2023-02-01T20:43:33;3.90;;;1.77;;
42518;SDS011;28147;47.520;18.920;2023-02-01T20:45:59;4.95;;;1.42;;
42518;SDS011;28147;47.520;18.920;2023-02-01T20:48:26;3.13;;;1.42;;
42518;SDS011;28147;47.520;18.920;2023-02-01T20:50:56;3.08;;;1.30;;
42518;SDS011;28147;47.520;18.920;2023-02-01T20:53:22;2.05;;;1.02;;
42518;SDS011;28147;47.520;18.920;2023-02-01T20:55:52;1.45;;;0.82;;
42518;SDS011;28147;47.520;18.920;2023-02-01T20:58:19;3.65;;;1.00;;
42518;SDS011;28147;47.520;18.920;2023-02-01T21:00:44;3.35;;;0.70;;
42518;SDS011;28147;47.520;18.920;2023-02-01T21:03:10;1.10;;;0.57;;
42518;SDS011;28147;47.520;18.920;2023-02-01T21:05:36;1.02;;;0.70;;
42518;SDS011;28147;47.520;18.920;2023-02-01T21:09:56;2.63;;;0.80;;
42518;SDS011;28147;47.520;18.920;2023-02-01T21:12:22;0.95;;;0.77;;
42518;SDS011;28147;47.520;18.920;2023-02-01T21:14:47;1.48;;;0.65;;
42518;SDS011;28147;47.520;18.920;2023-02-01T21:17:13;1.30;;;0.63;;
42518;SDS011;28147;47.520;18.920;2023-02-01T21:19:39;1.00;;;0.88;;
42518;SDS011;28147;47.520;18.920;2023-02-01T21:22:08;1.38;;;0.70;;
42518;SDS011;28147;47.520;18.920;2023-02-01T21:26:17;1.25;;;0.80;;
42518;SDS011;28147;47.520;18.920;2023-02-01T21:46:51;2.70;;;1.00;;
42518;SDS011;28147;47.520;18.920;2023-02-01T21:56:29;2.38;;;1.27;;
42518;SDS011;28147;47.520;18.920;2023-02-01T22:45:28;2.63;;;1.50;;
42518;SDS011;28147;47.520;18.920;2023-02-01T22:53:25;3.78;;;1.80;;
